sensor_id;sensor_type;location;lat;lon;timestamp;P1;durP1;ratioP1;P2;durP2;ratioP2
62790;SDS011;48830;53.426;10.300;2023-05-10T00:00:21;5.82;;;2.92;;
62790;SDS011;48830;53.426;10.300;2023-05-10T00:02:48;8.45;;;3.42;;
62790;SDS011;48830;53.426;10.300;2023-05-10T00:05:14;5.65;;;3.45;;
62790;SDS011;48830;53.426;10.300;2023-05-10T00:07:40;5.55;;;3.38;;
62790;SDS011;48830;53.426;10.300;2023-05-10T00:10:05;5.93;;;3.60;;
62790;SDS011;48830;53.426;10.300;2023-05-10T00:12:31;5.55;;;3.60;;
62790;SDS011;48830;53.426;10.300;2023-05-10T00:14:56;5.68;;;3.03;;
62790;SDS011;48830;53.426;10.300;2023-05-10T00:17:22;8.27;;;3.42;;
62790;SDS011;48830;53.426;10.300;2023-05-10T00:19:47;8.07;;;3.55;;
62790;SDS011;48830;53.426;10.300;2023-05-10T00:22:13;7.57;;;3.78;;
62790;SDS011;48830;53.426;10.300;2023-05-10T00:24:38;5.95;;;3.47;;
62790;SDS011;48830;53.426;10.300;2023-05-10T00:27:04;6.03;;;3.47;;
62790;SDS011;48830;53.426;10.300;2023-05-10T00:29:30;5.63;;;3.08;;
62790;SDS011;48830;53.426;10.300;2023-05-10T00:31:55;7.15;;;3.30;;
62790;SDS011;48830;53.426;10.300;2023-05-10T00:34:21;6.32;;;3.60;;
62790;SDS011;48830;53.426;10.300;2023-05-10T00:36:46;7.28;;;3.58;;
62790;SDS011;48830;53.426;10.300;2023-05-10T00:39:12;5.30;;;3.25;;
62790;SDS011;48830;53.426;10.300;2023-05-10T00:41:37;6.60;;;3.25;;
62790;SDS011;48830;53.426;10.300;2023-05-10T00:44:05;8.65;;;3.25;;
62790;SDS011;48830;53.426;10.300;2023-05-10T00:46:30;6.32;;;3.40;;
62790;SDS011;48830;53.426;10.300;2023-05-10T00:48:57;8.82;;;3.60;;
62790;SDS011;48830;53.426;10.300;2023-05-10T00:51:23;6.97;;;3.60;;
62790;SDS011;48830;53.426;10.300;2023-05-10T00:53:49;9.18;;;3.55;;
62790;SDS011;48830;53.426;10.300;2023-05-10T00:56:16;6.05;;;3.25;;
62790;SDS011;48830;53.426;10.300;2023-05-10T00:58:41;6.00;;;3.40;;
62790;SDS011;48830;53.426;10.300;2023-05-10T01:01:07;7.75;;;3.45;;
62790;SDS011;48830;53.426;10.300;2023-05-10T01:03:33;7.30;;;3.58;;
62790;SDS011;48830;53.426;10.300;2023-05-10T01:05:58;5.22;;;3.30;;
62790;SDS011;48830;53.426;10.300;2023-05-10T01:08:24;5.32;;;3.30;;
62790;SDS011;48830;53.426;10.300;2023-05-10T01:10:51;6.63;;;3.42;;
62790;SDS011;48830;53.426;10.300;2023-05-10T01:13:51;6.32;;;3.50;;
62790;SDS011;48830;53.426;10.300;2023-05-10T01:16:20;7.00;;;3.35;;
62790;SDS011;48830;53.426;10.300;2023-05-10T01:18:47;5.38;;;3.13;;
62790;SDS011;48830;53.426;10.300;2023-05-10T01:21:23;6.15;;;3.60;;
62790;SDS011;48830;53.426;10.300;2023-05-10T01:24:19;10.02;;;3.45;;
62790;SDS011;48830;53.426;10.300;2023-05-10T01:27:02;6.53;;;3.10;;
62790;SDS011;48830;53.426;10.300;2023-05-10T01:32:40;7.18;;;3.15;;
62790;SDS011;48830;53.426;10.300;2023-05-10T01:35:26;6.78;;;3.55;;
62790;SDS011;48830;53.426;10.300;2023-05-10T01:38:04;8.02;;;3.50;;
62790;SDS011;48830;53.426;10.300;2023-05-10T01:40:47;8.63;;;3.47;;
62790;SDS011;48830;53.426;10.300;2023-05-10T01:43:26;6.00;;;3.10;;
62790;SDS011;48830;53.426;10.300;2023-05-10T01:46:00;7.47;;;3.20;;
62790;SDS011;48830;53.426;10.300;2023-05-10T01:48:36;7.40;;;3.58;;
62790;SDS011;48830;53.426;10.300;2023-05-10T01:51:11;6.85;;;3.92;;
62790;SDS011;48830;53.426;10.300;2023-05-10T01:53:38;6.85;;;3.65;;
62790;SDS011;48830;53.426;10.300;2023-05-10T01:56:05;7.03;;;4.00;;
62790;SDS011;48830;53.426;10.300;2023-05-10T01:58:33;10.00;;;3.90;;
62790;SDS011;48830;53.426;10.300;2023-05-10T02:01:02;8.90;;;3.92;;
62790;SDS011;48830;53.426;10.300;2023-05-10T02:03:29;5.97;;;3.88;;
62790;SDS011;48830;53.426;10.300;2023-05-10T02:05:57;6.00;;;3.45;;
62790;SDS011;48830;53.426;10.300;2023-05-10T02:08:23;8.23;;;4.25;;
62790;SDS011;48830;53.426;10.300;2023-05-10T02:10:50;7.45;;;3.30;;
62790;SDS011;48830;53.426;10.300;2023-05-10T02:13:17;9.60;;;3.65;;
62790;SDS011;48830;53.426;10.300;2023-05-10T02:15:46;5.32;;;3.38;;
62790;SDS011;48830;53.426;10.300;2023-05-10T02:18:13;8.18;;;3.40;;
62790;SDS011;48830;53.426;10.300;2023-05-10T02:20:40;5.97;;;3.60;;
62790;SDS011;48830;53.426;10.300;2023-05-10T02:23:08;7.35;;;3.63;;
62790;SDS011;48830;53.426;10.300;2023-05-10T02:25:34;7.30;;;3.75;;
62790;SDS011;48830;53.426;10.300;2023-05-10T02:28:03;6.88;;;3.72;;
62790;SDS011;48830;53.426;10.300;2023-05-10T02:30:31;9.43;;;3.70;;
62790;SDS011;48830;53.426;10.300;2023-05-10T02:32:57;7.30;;;3.38;;
62790;SDS011;48830;53.426;10.300;2023-05-10T02:35:24;8.60;;;3.92;;
62790;SDS011;48830;53.426;10.300;2023-05-10T02:37:51;7.40;;;3.38;;
62790;SDS011;48830;53.426;10.300;2023-05-10T02:40:18;5.80;;;3.63;;
62790;SDS011;48830;53.426;10.300;2023-05-10T02:42:46;7.28;;;3.85;;
62790;SDS011;48830;53.426;10.300;2023-05-10T02:45:17;7.10;;;3.70;;
62790;SDS011;48830;53.426;10.300;2023-05-10T02:47:45;7.43;;;3.65;;
62790;SDS011;48830;53.426;10.300;2023-05-10T02:50:11;7.15;;;3.75;;
62790;SDS011;48830;53.426;10.300;2023-05-10T02:52:39;6.32;;;3.83;;
62790;SDS011;48830;53.426;10.300;2023-05-10T02:55:09;6.70;;;3.90;;
62790;SDS011;48830;53.426;10.300;2023-05-10T02:57:38;6.75;;;3.80;;
62790;SDS011;48830;53.426;10.300;2023-05-10T03:00:08;8.98;;;3.80;;
62790;SDS011;48830;53.426;10.300;2023-05-10T03:02:34;8.68;;;3.88;;
62790;SDS011;48830;53.426;10.300;2023-05-10T03:04:59;6.20;;;3.70;;
62790;SDS011;48830;53.426;10.300;2023-05-10T03:07:25;6.75;;;3.88;;
62790;SDS011;48830;53.426;10.300;2023-05-10T03:09:51;8.57;;;3.78;;
62790;SDS011;48830;53.426;10.300;2023-05-10T03:15:16;6.15;;;3.58;;
62790;SDS011;48830;53.426;10.300;2023-05-10T03:18:00;6.57;;;3.83;;
62790;SDS011;48830;53.426;10.300;2023-05-10T03:20:31;8.63;;;3.95;;
62790;SDS011;48830;53.426;10.300;2023-05-10T03:25:43;8.75;;;3.80;;
62790;SDS011;48830;53.426;10.300;2023-05-10T03:28:10;6.65;;;3.88;;
62790;SDS011;48830;53.426;10.300;2023-05-10T03:30:37;6.35;;;3.88;;
62790;SDS011;48830;53.426;10.300;2023-05-10T03:33:05;9.73;;;4.05;;
62790;SDS011;48830;53.426;10.300;2023-05-10T03:35:32;8.50;;;3.97;;
62790;SDS011;48830;53.426;10.300;2023-05-10T03:37:58;5.55;;;3.75;;
62790;SDS011;48830;53.426;10.300;2023-05-10T03:40:23;7.30;;;3.63;;
62790;SDS011;48830;53.426;10.300;2023-05-10T03:42:50;7.53;;;3.95;;
62790;SDS011;48830;53.426;10.300;2023-05-10T03:45:16;6.72;;;3.63;;
62790;SDS011;48830;53.426;10.300;2023-05-10T03:47:41;5.78;;;3.40;;
62790;SDS011;48830;53.426;10.300;2023-05-10T03:50:07;6.65;;;3.78;;
62790;SDS011;48830;53.426;10.300;2023-05-10T03:52:33;9.32;;;4.18;;
62790;SDS011;48830;53.426;10.300;2023-05-10T03:54:58;6.22;;;3.33;;
62790;SDS011;48830;53.426;10.300;2023-05-10T03:57:24;6.78;;;3.47;;
62790;SDS011;48830;53.426;10.300;2023-05-10T03:59:49;7.05;;;3.78;;
62790;SDS011;48830;53.426;10.300;2023-05-10T04:02:16;6.47;;;3.53;;
62790;SDS011;48830;53.426;10.300;2023-05-10T04:04:41;6.15;;;3.90;;
62790;SDS011;48830;53.426;10.300;2023-05-10T04:07:07;6.50;;;3.97;;
62790;SDS011;48830;53.426;10.300;2023-05-10T04:09:33;6.85;;;4.00;;
62790;SDS011;48830;53.426;10.300;2023-05-10T04:11:59;10.45;;;4.10;;
62790;SDS011;48830;53.426;10.300;2023-05-10T04:14:25;10.48;;;4.10;;
62790;SDS011;48830;53.426;10.300;2023-05-10T04:16:51;9.00;;;3.88;;
62790;SDS011;48830;53.426;10.300;2023-05-10T04:19:16;7.07;;;3.53;;
62790;SDS011;48830;53.426;10.300;2023-05-10T04:21:41;7.40;;;3.97;;
62790;SDS011;48830;53.426;10.300;2023-05-10T04:24:07;10.02;;;4.15;;
62790;SDS011;48830;53.426;10.300;2023-05-10T04:26:32;6.53;;;4.03;;
62790;SDS011;48830;53.426;10.300;2023-05-10T04:28:58;7.22;;;4.00;;
62790;SDS011;48830;53.426;10.300;2023-05-10T04:31:23;7.85;;;4.20;;
62790;SDS011;48830;53.426;10.300;2023-05-10T04:33:49;5.75;;;3.78;;
62790;SDS011;48830;53.426;10.300;2023-05-10T04:36:15;8.05;;;3.95;;
62790;SDS011;48830;53.426;10.300;2023-05-10T04:38:40;6.22;;;3.50;;
62790;SDS011;48830;53.426;10.300;2023-05-10T04:41:06;6.93;;;4.05;;
62790;SDS011;48830;53.426;10.300;2023-05-10T04:43:33;7.57;;;3.85;;
62790;SDS011;48830;53.426;10.300;2023-05-10T04:45:59;8.45;;;4.10;;
62790;SDS011;48830;53.426;10.300;2023-05-10T04:48:24;6.32;;;3.78;;
62790;SDS011;48830;53.426;10.300;2023-05-10T04:50:50;8.80;;;3.97;;
62790;SDS011;48830;53.426;10.300;2023-05-10T04:53:15;7.10;;;3.90;;
62790;SDS011;48830;53.426;10.300;2023-05-10T04:55:41;7.70;;;4.22;;
62790;SDS011;48830;53.426;10.300;2023-05-10T04:58:06;8.38;;;3.78;;
62790;SDS011;48830;53.426;10.300;2023-05-10T05:00:32;8.85;;;4.22;;
62790;SDS011;48830;53.426;10.300;2023-05-10T05:02:58;9.05;;;3.80;;
62790;SDS011;48830;53.426;10.300;2023-05-10T05:05:24;6.57;;;3.75;;
62790;SDS011;48830;53.426;10.300;2023-05-10T05:07:49;8.48;;;3.60;;
62790;SDS011;48830;53.426;10.300;2023-05-10T05:10:15;8.85;;;4.03;;
62790;SDS011;48830;53.426;10.300;2023-05-10T05:12:41;6.10;;;3.75;;
62790;SDS011;48830;53.426;10.300;2023-05-10T05:15:06;7.80;;;3.92;;
62790;SDS011;48830;53.426;10.300;2023-05-10T05:17:34;7.00;;;3.90;;
62790;SDS011;48830;53.426;10.300;2023-05-10T05:20:00;7.60;;;3.90;;
62790;SDS011;48830;53.426;10.300;2023-05-10T05:22:25;6.55;;;4.05;;
62790;SDS011;48830;53.426;10.300;2023-05-10T05:24:56;6.63;;;4.13;;
62790;SDS011;48830;53.426;10.300;2023-05-10T05:27:23;7.80;;;3.60;;
62790;SDS011;48830;53.426;10.300;2023-05-10T05:29:54;10.00;;;4.20;;
62790;SDS011;48830;53.426;10.300;2023-05-10T05:32:21;9.43;;;4.30;;
62790;SDS011;48830;53.426;10.300;2023-05-10T05:34:47;6.47;;;3.85;;
62790;SDS011;48830;53.426;10.300;2023-05-10T05:37:16;10.52;;;4.30;;
62790;SDS011;48830;53.426;10.300;2023-05-10T05:39:43;7.22;;;3.90;;
62790;SDS011;48830;53.426;10.300;2023-05-10T05:42:09;10.85;;;4.30;;
62790;SDS011;48830;53.426;10.300;2023-05-10T05:44:35;14.57;;;4.40;;
62790;SDS011;48830;53.426;10.300;2023-05-10T05:47:00;6.75;;;4.38;;
62790;SDS011;48830;53.426;10.300;2023-05-10T05:49:26;6.88;;;4.00;;
62790;SDS011;48830;53.426;10.300;2023-05-10T05:51:51;8.02;;;3.80;;
62790;SDS011;48830;53.426;10.300;2023-05-10T05:54:17;9.23;;;4.10;;
62790;SDS011;48830;53.426;10.300;2023-05-10T05:56:42;7.15;;;4.40;;
62790;SDS011;48830;53.426;10.300;2023-05-10T05:59:09;10.00;;;4.35;;
62790;SDS011;48830;53.426;10.300;2023-05-10T06:01:35;6.13;;;4.15;;
62790;SDS011;48830;53.426;10.300;2023-05-10T06:04:01;13.45;;;4.50;;
62790;SDS011;48830;53.426;10.300;2023-05-10T06:06:26;6.60;;;3.90;;
62790;SDS011;48830;53.426;10.300;2023-05-10T06:08:52;12.35;;;4.45;;
62790;SDS011;48830;53.426;10.300;2023-05-10T06:11:17;7.57;;;4.25;;
62790;SDS011;48830;53.426;10.300;2023-05-10T06:13:43;7.45;;;4.22;;
62790;SDS011;48830;53.426;10.300;2023-05-10T06:16:08;7.45;;;4.25;;
62790;SDS011;48830;53.426;10.300;2023-05-10T06:18:34;10.82;;;4.30;;
62790;SDS011;48830;53.426;10.300;2023-05-10T06:20:59;7.32;;;3.97;;
62790;SDS011;48830;53.426;10.300;2023-05-10T06:23:25;8.57;;;4.35;;
62790;SDS011;48830;53.426;10.300;2023-05-10T06:25:51;6.00;;;3.70;;
62790;SDS011;48830;53.426;10.300;2023-05-10T06:28:17;7.30;;;4.03;;
62790;SDS011;48830;53.426;10.300;2023-05-10T06:30:42;6.35;;;3.85;;
62790;SDS011;48830;53.426;10.300;2023-05-10T06:33:08;7.85;;;4.40;;
62790;SDS011;48830;53.426;10.300;2023-05-10T06:35:33;6.28;;;3.67;;
62790;SDS011;48830;53.426;10.300;2023-05-10T06:37:59;6.47;;;4.22;;
62790;SDS011;48830;53.426;10.300;2023-05-10T06:40:24;7.18;;;4.22;;
62790;SDS011;48830;53.426;10.300;2023-05-10T06:42:50;9.43;;;4.10;;
62790;SDS011;48830;53.426;10.300;2023-05-10T06:45:16;11.75;;;4.13;;
62790;SDS011;48830;53.426;10.300;2023-05-10T06:47:42;9.18;;;4.15;;
62790;SDS011;48830;53.426;10.300;2023-05-10T06:50:08;8.32;;;4.32;;
62790;SDS011;48830;53.426;10.300;2023-05-10T06:52:34;6.97;;;3.90;;
62790;SDS011;48830;53.426;10.300;2023-05-10T06:55:00;8.43;;;4.00;;
62790;SDS011;48830;53.426;10.300;2023-05-10T06:57:26;8.05;;;3.58;;
62790;SDS011;48830;53.426;10.300;2023-05-10T06:59:52;7.85;;;3.83;;
62790;SDS011;48830;53.426;10.300;2023-05-10T07:02:17;6.18;;;3.83;;
62790;SDS011;48830;53.426;10.300;2023-05-10T07:04:43;14.75;;;4.05;;
62790;SDS011;48830;53.426;10.300;2023-05-10T07:07:08;13.85;;;4.20;;
62790;SDS011;48830;53.426;10.300;2023-05-10T07:09:34;7.57;;;3.90;;
62790;SDS011;48830;53.426;10.300;2023-05-10T07:11:59;7.47;;;3.60;;
62790;SDS011;48830;53.426;10.300;2023-05-10T07:14:26;8.30;;;4.10;;
62790;SDS011;48830;53.426;10.300;2023-05-10T07:16:52;6.30;;;3.80;;
62790;SDS011;48830;53.426;10.300;2023-05-10T07:19:18;6.07;;;3.80;;
62790;SDS011;48830;53.426;10.300;2023-05-10T07:21:44;8.20;;;4.20;;
62790;SDS011;48830;53.426;10.300;2023-05-10T07:24:09;10.27;;;3.70;;
62790;SDS011;48830;53.426;10.300;2023-05-10T07:26:35;5.97;;;3.53;;
62790;SDS011;48830;53.426;10.300;2023-05-10T07:29:00;9.55;;;3.60;;
62790;SDS011;48830;53.426;10.300;2023-05-10T07:31:26;5.78;;;3.55;;
62790;SDS011;48830;53.426;10.300;2023-05-10T07:33:51;11.30;;;3.85;;
62790;SDS011;48830;53.426;10.300;2023-05-10T07:36:17;5.65;;;3.55;;
62790;SDS011;48830;53.426;10.300;2023-05-10T07:38:42;8.25;;;4.05;;
62790;SDS011;48830;53.426;10.300;2023-05-10T07:41:07;7.88;;;4.05;;
62790;SDS011;48830;53.426;10.300;2023-05-10T07:43:33;6.70;;;3.97;;
62790;SDS011;48830;53.426;10.300;2023-05-10T07:45:58;7.10;;;3.80;;
62790;SDS011;48830;53.426;10.300;2023-05-10T07:48:24;6.82;;;3.85;;
62790;SDS011;48830;53.426;10.300;2023-05-10T07:50:50;6.35;;;3.97;;
62790;SDS011;48830;53.426;10.300;2023-05-10T07:53:16;8.50;;;4.00;;
62790;SDS011;48830;53.426;10.300;2023-05-10T07:55:43;7.07;;;3.88;;
62790;SDS011;48830;53.426;10.300;2023-05-10T07:58:09;6.70;;;4.03;;
62790;SDS011;48830;53.426;10.300;2023-05-10T08:00:34;6.53;;;3.75;;
62790;SDS011;48830;53.426;10.300;2023-05-10T08:03:00;6.32;;;3.83;;
62790;SDS011;48830;53.426;10.300;2023-05-10T08:05:25;5.93;;;4.00;;
62790;SDS011;48830;53.426;10.300;2023-05-10T08:07:50;6.05;;;3.92;;
62790;SDS011;48830;53.426;10.300;2023-05-10T08:10:16;7.45;;;3.88;;
62790;SDS011;48830;53.426;10.300;2023-05-10T08:12:42;7.47;;;3.60;;
62790;SDS011;48830;53.426;10.300;2023-05-10T08:15:07;9.75;;;3.90;;
62790;SDS011;48830;53.426;10.300;2023-05-10T08:17:33;10.07;;;4.35;;
62790;SDS011;48830;53.426;10.300;2023-05-10T08:19:59;12.73;;;4.10;;
62790;SDS011;48830;53.426;10.300;2023-05-10T08:22:24;6.07;;;3.85;;
62790;SDS011;48830;53.426;10.300;2023-05-10T08:24:51;9.30;;;3.83;;
62790;SDS011;48830;53.426;10.300;2023-05-10T08:27:17;6.60;;;3.65;;
62790;SDS011;48830;53.426;10.300;2023-05-10T08:29:42;8.60;;;4.00;;
62790;SDS011;48830;53.426;10.300;2023-05-10T08:32:08;6.13;;;3.80;;
62790;SDS011;48830;53.426;10.300;2023-05-10T08:34:33;6.40;;;3.80;;
62790;SDS011;48830;53.426;10.300;2023-05-10T08:36:59;5.65;;;3.83;;
62790;SDS011;48830;53.426;10.300;2023-05-10T08:39:24;6.55;;;3.63;;
62790;SDS011;48830;53.426;10.300;2023-05-10T08:41:50;8.35;;;4.25;;
62790;SDS011;48830;53.426;10.300;2023-05-10T08:44:19;7.53;;;4.38;;
62790;SDS011;48830;53.426;10.300;2023-05-10T08:46:46;8.45;;;4.07;;
62790;SDS011;48830;53.426;10.300;2023-05-10T08:49:16;5.93;;;4.10;;
62790;SDS011;48830;53.426;10.300;2023-05-10T08:51:47;6.90;;;4.10;;
62790;SDS011;48830;53.426;10.300;2023-05-10T08:54:17;7.00;;;3.97;;
62790;SDS011;48830;53.426;10.300;2023-05-10T08:56:42;7.00;;;4.57;;
62790;SDS011;48830;53.426;10.300;2023-05-10T08:59:08;9.38;;;3.95;;
62790;SDS011;48830;53.426;10.300;2023-05-10T09:01:34;6.57;;;4.10;;
62790;SDS011;48830;53.426;10.300;2023-05-10T09:04:02;7.43;;;3.70;;
62790;SDS011;48830;53.426;10.300;2023-05-10T09:06:29;9.25;;;4.07;;
62790;SDS011;48830;53.426;10.300;2023-05-10T09:08:54;6.80;;;4.10;;
62790;SDS011;48830;53.426;10.300;2023-05-10T09:11:20;8.20;;;4.35;;
62790;SDS011;48830;53.426;10.300;2023-05-10T09:13:47;7.88;;;4.10;;
62790;SDS011;48830;53.426;10.300;2023-05-10T09:16:15;7.40;;;4.53;;
62790;SDS011;48830;53.426;10.300;2023-05-10T09:18:40;7.10;;;4.60;;
62790;SDS011;48830;53.426;10.300;2023-05-10T09:21:06;5.97;;;4.13;;
62790;SDS011;48830;53.426;10.300;2023-05-10T09:23:31;9.02;;;4.28;;
62790;SDS011;48830;53.426;10.300;2023-05-10T09:26:04;6.95;;;4.20;;
62790;SDS011;48830;53.426;10.300;2023-05-10T09:28:33;8.48;;;4.35;;
62790;SDS011;48830;53.426;10.300;2023-05-10T09:31:14;6.25;;;4.45;;
62790;SDS011;48830;53.426;10.300;2023-05-10T09:33:43;8.23;;;4.30;;
62790;SDS011;48830;53.426;10.300;2023-05-10T09:36:13;7.32;;;4.35;;
62790;SDS011;48830;53.426;10.300;2023-05-10T09:38:48;8.68;;;4.03;;
62790;SDS011;48830;53.426;10.300;2023-05-10T09:41:20;9.75;;;4.20;;
62790;SDS011;48830;53.426;10.300;2023-05-10T09:43:47;7.00;;;4.15;;
62790;SDS011;48830;53.426;10.300;2023-05-10T09:46:13;6.88;;;4.43;;
62790;SDS011;48830;53.426;10.300;2023-05-10T09:48:41;10.18;;;4.85;;
62790;SDS011;48830;53.426;10.300;2023-05-10T09:51:14;8.50;;;4.82;;
62790;SDS011;48830;53.426;10.300;2023-05-10T09:53:44;10.70;;;4.70;;
62790;SDS011;48830;53.426;10.300;2023-05-10T09:56:09;7.57;;;4.70;;
62790;SDS011;48830;53.426;10.300;2023-05-10T09:58:36;7.28;;;4.53;;
62790;SDS011;48830;53.426;10.300;2023-05-10T10:01:03;10.30;;;4.97;;
62790;SDS011;48830;53.426;10.300;2023-05-10T10:03:28;9.05;;;4.63;;
62790;SDS011;48830;53.426;10.300;2023-05-10T10:05:55;8.70;;;5.05;;
62790;SDS011;48830;53.426;10.300;2023-05-10T10:08:21;7.63;;;4.78;;
62790;SDS011;48830;53.426;10.300;2023-05-10T10:10:46;7.20;;;4.93;;
62790;SDS011;48830;53.426;10.300;2023-05-10T10:13:12;8.93;;;5.22;;
62790;SDS011;48830;53.426;10.300;2023-05-10T10:15:38;7.43;;;5.40;;
62790;SDS011;48830;53.426;10.300;2023-05-10T10:18:04;10.10;;;5.85;;
62790;SDS011;48830;53.426;10.300;2023-05-10T10:20:30;7.97;;;5.22;;
62790;SDS011;48830;53.426;10.300;2023-05-10T10:22:56;8.57;;;5.65;;
62790;SDS011;48830;53.426;10.300;2023-05-10T10:25:22;9.88;;;5.90;;
62790;SDS011;48830;53.426;10.300;2023-05-10T10:36:05;8.15;;;5.80;;
62790;SDS011;48830;53.426;10.300;2023-05-10T10:41:54;10.38;;;6.13;;
62790;SDS011;48830;53.426;10.300;2023-05-10T10:49:49;11.13;;;7.43;;
62790;SDS011;48830;53.426;10.300;2023-05-10T10:52:32;11.63;;;8.00;;
62790;SDS011;48830;53.426;10.300;2023-05-10T10:55:06;11.88;;;7.38;;
62790;SDS011;48830;53.426;10.300;2023-05-10T11:02:58;9.57;;;7.28;;
62790;SDS011;48830;53.426;10.300;2023-05-10T11:07:58;10.63;;;7.38;;
62790;SDS011;48830;53.426;10.300;2023-05-10T11:10:25;10.88;;;7.50;;
62790;SDS011;48830;53.426;10.300;2023-05-10T11:12:52;10.23;;;7.07;;
62790;SDS011;48830;53.426;10.300;2023-05-10T11:15:28;10.90;;;7.47;;
62790;SDS011;48830;53.426;10.300;2023-05-10T11:17:58;9.85;;;7.47;;
62790;SDS011;48830;53.426;10.300;2023-05-10T11:20:27;9.98;;;7.45;;
62790;SDS011;48830;53.426;10.300;2023-05-10T11:22:58;11.95;;;7.85;;
62790;SDS011;48830;53.426;10.300;2023-05-10T11:25:40;10.52;;;6.72;;
62790;SDS011;48830;53.426;10.300;2023-05-10T11:28:10;9.93;;;6.90;;
62790;SDS011;48830;53.426;10.300;2023-05-10T11:30:41;10.65;;;7.22;;
62790;SDS011;48830;53.426;10.300;2023-05-10T11:33:14;9.88;;;7.50;;
62790;SDS011;48830;53.426;10.300;2023-05-10T11:35:41;10.98;;;7.25;;
62790;SDS011;48830;53.426;10.300;2023-05-10T11:38:07;11.32;;;7.40;;
62790;SDS011;48830;53.426;10.300;2023-05-10T11:40:34;9.88;;;7.10;;
62790;SDS011;48830;53.426;10.300;2023-05-10T11:43:00;10.88;;;8.05;;
62790;SDS011;48830;53.426;10.300;2023-05-10T11:45:25;10.25;;;7.43;;
62790;SDS011;48830;53.426;10.300;2023-05-10T11:47:51;10.45;;;8.23;;
62790;SDS011;48830;53.426;10.300;2023-05-10T11:50:17;9.00;;;7.35;;
62790;SDS011;48830;53.426;10.300;2023-05-10T11:52:42;12.30;;;8.60;;
62790;SDS011;48830;53.426;10.300;2023-05-10T11:55:08;11.23;;;8.02;;
62790;SDS011;48830;53.426;10.300;2023-05-10T11:57:34;10.55;;;8.98;;
62790;SDS011;48830;53.426;10.300;2023-05-10T12:00:00;10.02;;;8.00;;
62790;SDS011;48830;53.426;10.300;2023-05-10T12:02:32;11.35;;;8.43;;
62790;SDS011;48830;53.426;10.300;2023-05-10T12:04:58;9.88;;;8.43;;
62790;SDS011;48830;53.426;10.300;2023-05-10T12:07:25;11.40;;;8.60;;
62790;SDS011;48830;53.426;10.300;2023-05-10T12:12:46;11.07;;;8.20;;
62790;SDS011;48830;53.426;10.300;2023-05-10T12:15:20;10.05;;;8.23;;
62790;SDS011;48830;53.426;10.300;2023-05-10T12:17:47;11.73;;;8.60;;
62790;SDS011;48830;53.426;10.300;2023-05-10T12:20:23;12.30;;;9.18;;
62790;SDS011;48830;53.426;10.300;2023-05-10T12:22:56;10.75;;;9.27;;
62790;SDS011;48830;53.426;10.300;2023-05-10T12:25:24;12.73;;;9.25;;
62790;SDS011;48830;53.426;10.300;2023-05-10T12:27:56;10.25;;;8.02;;
62790;SDS011;48830;53.426;10.300;2023-05-10T12:30:30;11.07;;;8.60;;
62790;SDS011;48830;53.426;10.300;2023-05-10T12:33:06;12.32;;;9.00;;
62790;SDS011;48830;53.426;10.300;2023-05-10T12:35:32;10.43;;;8.30;;
62790;SDS011;48830;53.426;10.300;2023-05-10T12:37:58;10.65;;;8.73;;
62790;SDS011;48830;53.426;10.300;2023-05-10T12:40:23;11.63;;;8.52;;
62790;SDS011;48830;53.426;10.300;2023-05-10T12:42:49;12.13;;;9.25;;
62790;SDS011;48830;53.426;10.300;2023-05-10T12:45:16;10.98;;;8.40;;
62790;SDS011;48830;53.426;10.300;2023-05-10T12:47:43;11.65;;;8.60;;
62790;SDS011;48830;53.426;10.300;2023-05-10T12:50:08;10.23;;;8.57;;
62790;SDS011;48830;53.426;10.300;2023-05-10T12:52:34;9.13;;;7.43;;
62790;SDS011;48830;53.426;10.300;2023-05-10T12:55:00;10.50;;;7.78;;
62790;SDS011;48830;53.426;10.300;2023-05-10T12:57:26;9.38;;;6.55;;
62790;SDS011;48830;53.426;10.300;2023-05-10T12:59:52;8.18;;;6.57;;
62790;SDS011;48830;53.426;10.300;2023-05-10T13:02:17;8.80;;;6.70;;
62790;SDS011;48830;53.426;10.300;2023-05-10T13:04:43;8.77;;;6.70;;
62790;SDS011;48830;53.426;10.300;2023-05-10T13:07:11;7.60;;;5.80;;
62790;SDS011;48830;53.426;10.300;2023-05-10T13:09:36;8.18;;;6.25;;
62790;SDS011;48830;53.426;10.300;2023-05-10T13:12:02;8.93;;;6.60;;
62790;SDS011;48830;53.426;10.300;2023-05-10T13:14:29;10.05;;;7.30;;
62790;SDS011;48830;53.426;10.300;2023-05-10T13:16:54;8.95;;;7.13;;
62790;SDS011;48830;53.426;10.300;2023-05-10T13:19:20;8.98;;;6.78;;
62790;SDS011;48830;53.426;10.300;2023-05-10T13:21:45;9.40;;;6.72;;
62790;SDS011;48830;53.426;10.300;2023-05-10T13:24:11;9.02;;;7.15;;
62790;SDS011;48830;53.426;10.300;2023-05-10T13:26:39;9.85;;;6.95;;
62790;SDS011;48830;53.426;10.300;2023-05-10T13:29:07;8.30;;;6.63;;
62790;SDS011;48830;53.426;10.300;2023-05-10T13:31:33;9.65;;;6.82;;
62790;SDS011;48830;53.426;10.300;2023-05-10T13:33:59;8.10;;;6.32;;
62790;SDS011;48830;53.426;10.300;2023-05-10T13:36:25;7.90;;;5.88;;
62790;SDS011;48830;53.426;10.300;2023-05-10T13:38:51;7.57;;;5.88;;
62790;SDS011;48830;53.426;10.300;2023-05-10T13:41:16;8.95;;;7.00;;
62790;SDS011;48830;53.426;10.300;2023-05-10T13:43:42;7.68;;;6.22;;
62790;SDS011;48830;53.426;10.300;2023-05-10T13:46:08;8.45;;;6.07;;
62790;SDS011;48830;53.426;10.300;2023-05-10T13:48:33;6.93;;;5.25;;
62790;SDS011;48830;53.426;10.300;2023-05-10T13:50:59;8.85;;;5.68;;
62790;SDS011;48830;53.426;10.300;2023-05-10T13:53:24;8.10;;;5.88;;
62790;SDS011;48830;53.426;10.300;2023-05-10T13:55:50;7.88;;;5.72;;
62790;SDS011;48830;53.426;10.300;2023-05-10T13:58:15;7.70;;;5.70;;
62790;SDS011;48830;53.426;10.300;2023-05-10T14:00:40;8.18;;;6.47;;
62790;SDS011;48830;53.426;10.300;2023-05-10T14:03:06;10.00;;;7.20;;
62790;SDS011;48830;53.426;10.300;2023-05-10T14:05:34;8.38;;;6.63;;
62790;SDS011;48830;53.426;10.300;2023-05-10T14:07:59;9.02;;;7.15;;
62790;SDS011;48830;53.426;10.300;2023-05-10T14:10:25;14.10;;;7.63;;
62790;SDS011;48830;53.426;10.300;2023-05-10T14:12:50;8.45;;;6.40;;
62790;SDS011;48830;53.426;10.300;2023-05-10T14:15:16;8.88;;;6.60;;
62790;SDS011;48830;53.426;10.300;2023-05-10T14:17:41;9.82;;;7.00;;
62790;SDS011;48830;53.426;10.300;2023-05-10T14:20:07;8.73;;;6.72;;
62790;SDS011;48830;53.426;10.300;2023-05-10T14:22:33;8.23;;;6.78;;
62790;SDS011;48830;53.426;10.300;2023-05-10T14:24:59;8.32;;;6.38;;
62790;SDS011;48830;53.426;10.300;2023-05-10T14:27:25;7.60;;;5.90;;
62790;SDS011;48830;53.426;10.300;2023-05-10T14:29:50;7.90;;;5.95;;
62790;SDS011;48830;53.426;10.300;2023-05-10T14:32:16;8.25;;;6.05;;
62790;SDS011;48830;53.426;10.300;2023-05-10T14:34:41;7.47;;;5.60;;
62790;SDS011;48830;53.426;10.300;2023-05-10T14:37:07;8.85;;;6.25;;
62790;SDS011;48830;53.426;10.300;2023-05-10T14:39:32;7.60;;;6.10;;
62790;SDS011;48830;53.426;10.300;2023-05-10T14:41:58;7.88;;;6.30;;
62790;SDS011;48830;53.426;10.300;2023-05-10T14:44:23;7.70;;;6.30;;
62790;SDS011;48830;53.426;10.300;2023-05-10T14:46:49;7.78;;;6.18;;
62790;SDS011;48830;53.426;10.300;2023-05-10T14:49:14;7.82;;;6.00;;
62790;SDS011;48830;53.426;10.300;2023-05-10T14:51:40;7.32;;;5.60;;
62790;SDS011;48830;53.426;10.300;2023-05-10T14:54:05;8.48;;;6.10;;
62790;SDS011;48830;53.426;10.300;2023-05-10T14:56:31;8.48;;;5.97;;
62790;SDS011;48830;53.426;10.300;2023-05-10T14:58:57;8.40;;;6.35;;
62790;SDS011;48830;53.426;10.300;2023-05-10T15:01:22;7.10;;;5.95;;
62790;SDS011;48830;53.426;10.300;2023-05-10T15:03:48;6.88;;;5.20;;
62790;SDS011;48830;53.426;10.300;2023-05-10T15:06:14;6.15;;;4.47;;